Time;durP1;ratioP1;P1;durP2;ratioP2;P2;SDS_P1;SDS_P2;PMS_P1;PMS_P2;Temp;Humidity;BMP_temperature;BMP_pressure;BME280_temperature;BME280_humidity;BME280_pressure;Samples;Min_cycle;Max_cycle;Signal;HPM_P1;HPM_P2
2022/02/23 00:01:37;;;;;;;15.77;4.43;;;;;;;7.06;88.11;102100.72;5032848;28;20480;-43
2022/02/23 00:04:05;;;;;;;14.05;4.05;;;;;;;7.05;87.61;102104.47;5033913;28;20128;-42
2022/02/23 00:06:33;;;;;;;15.25;4.30;;;;;;;7.04;87.63;102119.88;5032124;28;20049;-44
2022/02/23 00:09:01;;;;;;;14.25;4.38;;;;;;;7.05;87.31;102120.75;5033980;28;20045;-49
2022/02/23 00:11:28;;;;;;;14.05;4.07;;;;;;;7.06;87.65;102126.97;5033484;28;20143;-46
2022/02/23 00:13:56;;;;;;;16.15;3.90;;;;;;;7.06;86.89;102125.09;5033414;28;20045;-47
2022/02/23 00:16:24;;;;;;;14.55;4.32;;;;;;;7.05;87.59;102137.00;5029684;28;20503;-45
2022/02/23 00:18:52;;;;;;;17.42;4.97;;;;;;;7.06;87.45;102140.53;5031703;28;20120;-48
2022/02/23 00:21:19;;;;;;;14.13;4.30;;;;;;;7.07;87.54;102132.22;5033241;28;20034;-48
2022/02/23 00:23:47;;;;;;;13.98;4.32;;;;;;;7.06;87.37;102141.34;5033269;28;20055;-47
2022/02/23 00:26:15;;;;;;;13.80;3.88;;;;;;;7.08;87.42;102141.97;5030860;28;20064;-45
2022/02/23 00:28:45;;;;;;;18.75;3.97;;;;;;;7.10;87.20;102142.59;5032853;28;20049;-45
2022/02/23 00:31:12;;;;;;;12.73;3.90;;;;;;;7.08;87.31;102141.97;5033178;28;20041;-47
2022/02/23 00:33:40;;;;;;;17.60;4.35;;;;;;;7.07;86.72;102144.91;5033053;28;20099;-45
2022/02/23 00:36:08;;;;;;;20.98;4.60;;;;;;;7.04;86.95;102140.72;5022118;28;20042;-46
2022/02/23 00:38:35;;;;;;;16.83;4.35;;;;;;;7.03;86.97;102144.50;5030477;28;20061;-47
2022/02/23 00:41:10;;;;;;;16.67;4.75;;;;;;;7.02;87.29;102148.25;5033011;28;20049;-45
2022/02/23 00:43:38;;;;;;;17.50;4.70;;;;;;;7.01;87.00;102152.84;5033139;28;20495;-45
2022/02/23 00:46:05;;;;;;;11.82;3.85;;;;;;;7.01;86.98;102154.72;5023380;28;20493;-48
2022/02/23 00:48:33;;;;;;;18.77;5.10;;;;;;;6.97;86.72;102148.03;5013374;28;20558;-45
2022/02/23 00:51:01;;;;;;;16.33;4.70;;;;;;;6.93;86.74;102149.53;5013164;28;20052;-45
2022/02/23 00:53:28;;;;;;;13.93;4.15;;;;;;;6.92;86.88;102153.28;5013368;28;20141;-46
2022/02/23 00:55:56;;;;;;;14.45;4.22;;;;;;;6.93;87.20;102146.81;5012422;28;20030;-45
2022/02/23 00:58:24;;;;;;;13.55;4.25;;;;;;;6.92;86.59;102153.28;5013406;28;20073;-46
2022/02/23 01:00:53;;;;;;;13.95;3.95;;;;;;;6.89;86.63;102161.81;5013513;28;20034;-45
2022/02/23 01:03:21;;;;;;;15.38;4.50;;;;;;;6.87;86.63;102161.19;5014306;28;20041;-45
2022/02/23 01:05:49;;;;;;;15.75;3.90;;;;;;;6.87;86.98;102158.50;5013894;28;20042;-45
2022/02/23 01:08:16;;;;;;;12.70;4.00;;;;;;;6.86;86.38;102165.78;5024321;28;20045;-47
2022/02/23 01:10:44;;;;;;;13.43;4.13;;;;;;;6.86;86.48;102164.97;5032924;28;20041;-46
2022/02/23 01:13:13;;;;;;;18.65;4.70;;;;;;;6.86;86.78;102170.38;5031750;28;20121;-45
2022/02/23 01:15:40;;;;;;;15.43;4.30;;;;;;;6.86;86.89;102179.34;5022355;28;20505;-45
2022/02/23 01:18:08;;;;;;;13.82;4.55;;;;;;;6.82;86.94;102184.31;5027727;28;20053;-46
2022/02/23 01:20:36;;;;;;;17.00;4.78;;;;;;;6.83;87.46;102187.84;5012743;28;20050;-45
2022/02/23 01:23:04;;;;;;;15.13;4.72;;;;;;;6.85;87.62;102184.94;5012068;28;20400;-45
2022/02/23 01:25:32;;;;;;;14.43;3.92;;;;;;;6.83;86.99;102196.84;5012056;28;20520;-46
2022/02/23 01:28:05;;;;;;;17.80;4.63;;;;;;;6.83;86.98;102204.97;5012585;28;20084;-45
2022/02/23 01:30:34;;;;;;;15.30;4.38;;;;;;;6.81;87.16;102198.94;5026492;28;20136;-45
2022/02/23 01:33:02;;;;;;;16.15;4.50;;;;;;;6.81;87.73;102200.81;5012053;28;20065;-46
2022/02/23 01:35:31;;;;;;;14.82;4.30;;;;;;;6.81;87.62;102200.81;5015463;28;20381;-47
2022/02/23 01:37:58;;;;;;;16.10;4.30;;;;;;;6.80;88.03;102209.97;5025230;28;20045;-43
2022/02/23 01:40:26;;;;;;;16.05;4.20;;;;;;;6.78;87.65;102210.19;5015588;28;20049;-46
2022/02/23 01:42:54;;;;;;;17.15;4.18;;;;;;;6.77;87.90;102205.78;5016258;28;20042;-45
2022/02/23 01:45:21;;;;;;;13.55;4.15;;;;;;;6.76;87.74;102204.13;5023676;28;20040;-46
2022/02/23 01:47:49;;;;;;;17.15;4.30;;;;;;;6.75;87.32;102201.63;5036410;28;20048;-46
2022/02/23 01:50:17;;;;;;;16.25;4.18;;;;;;;6.75;87.45;102207.88;5034116;28;20038;-46
2022/02/23 01:52:45;;;;;;;15.52;4.40;;;;;;;6.75;88.28;102210.59;5036049;28;20076;-45
2022/02/23 01:55:13;;;;;;;13.05;3.75;;;;;;;6.75;87.49;102210.59;5034241;28;20038;-46
2022/02/23 01:57:40;;;;;;;19.08;4.70;;;;;;;6.76;87.96;102222.28;5035941;28;20073;-43
2022/02/23 02:00:12;;;;;;;18.45;4.45;;;;;;;6.76;87.25;102216.84;5035941;28;20550;-44
2022/02/23 02:02:40;;;;;;;17.17;4.90;;;;;;;6.74;87.07;102213.53;5033997;28;20054;-42
2022/02/23 02:05:10;;;;;;;14.20;4.25;;;;;;;6.73;87.54;102207.25;5027466;28;20050;-48
2022/02/23 02:07:38;;;;;;;18.67;4.45;;;;;;;6.71;87.67;102228.31;5015944;28;20034;-47
2022/02/23 02:10:07;;;;;;;18.70;4.68;;;;;;;6.70;87.43;102226.63;5019670;28;20136;-44
2022/02/23 02:12:35;;;;;;;16.23;4.47;;;;;;;6.69;86.93;102235.81;5015991;28;20479;-46
2022/02/23 02:15:03;;;;;;;13.65;4.05;;;;;;;6.69;87.54;102234.97;5017853;28;20034;-49
2022/02/23 02:17:31;;;;;;;18.90;4.68;;;;;;;6.67;87.25;102237.88;5035448;28;20128;-46
2022/02/23 02:19:58;;;;;;;15.52;4.60;;;;;;;6.66;87.45;102244.31;5034937;28;20049;-44
2022/02/23 02:22:29;;;;;;;14.63;4.30;;;;;;;6.65;87.84;102239.13;5015747;28;20120;-48
2022/02/23 02:24:59;;;;;;;12.40;3.90;;;;;;;6.63;87.47;102244.75;5031363;28;20049;-43
2022/02/23 02:27:27;;;;;;;18.10;4.20;;;;;;;6.62;87.68;102251.22;5015965;28;20042;-44
2022/02/23 02:29:55;;;;;;;18.85;4.68;;;;;;;6.61;87.22;102257.66;5015519;28;20048;-45
2022/02/23 02:32:22;;;;;;;15.88;4.60;;;;;;;6.59;87.59;102262.44;5016767;28;20046;-45
2022/02/23 02:34:50;;;;;;;15.82;4.35;;;;;;;6.58;87.25;102264.31;5016674;28;20054;-47
2022/02/23 02:37:18;;;;;;;15.20;4.70;;;;;;;6.57;87.62;102265.38;5015265;28;20571;-45
2022/02/23 02:39:45;;;;;;;14.70;4.47;;;;;;;6.56;87.54;102269.09;5015494;28;20074;-44
2022/02/23 02:42:19;;;;;;;12.10;3.90;;;;;;;6.55;87.77;102266.63;5033569;28;20045;-46
2022/02/23 02:44:46;;;;;;;14.52;4.25;;;;;;;6.54;87.92;102275.75;5034427;28;20064;-44
2022/02/23 02:47:14;;;;;;;11.77;4.07;;;;;;;6.52;87.87;102273.28;5034919;28;20038;-45
2022/02/23 02:49:42;;;;;;;18.33;4.20;;;;;;;6.51;87.83;102277.00;5033836;28;20046;-46
2022/02/23 02:52:10;;;;;;;16.77;4.57;;;;;;;6.51;87.61;102273.47;5032726;28;20514;-46
2022/02/23 02:54:38;;;;;;;13.02;4.18;;;;;;;6.50;87.68;102280.78;5031192;28;20041;-47
2022/02/23 02:57:06;;;;;;;13.00;3.85;;;;;;;6.51;87.67;102282.44;5014915;28;20038;-47
2022/02/23 02:59:33;;;;;;;14.88;3.83;;;;;;;6.50;87.33;102280.78;4997482;28;20492;-46
2022/02/23 03:02:02;;;;;;;12.88;3.85;;;;;;;6.51;87.26;102287.00;5016198;28;20064;-47
2022/02/23 03:04:29;;;;;;;13.32;4.10;;;;;;;6.52;87.08;102280.56;5015911;28;20148;-46
2022/02/23 03:06:57;;;;;;;17.25;4.43;;;;;;;6.51;87.65;102281.59;5015106;28;20034;-44
2022/02/23 03:09:27;;;;;;;16.27;4.90;;;;;;;6.51;87.53;102282.44;5014917;28;20052;-47
2022/02/23 03:11:55;;;;;;;12.48;3.97;;;;;;;6.51;86.78;102287.00;5015957;28;20046;-45
2022/02/23 03:14:23;;;;;;;16.52;4.40;;;;;;;6.50;86.69;102290.78;5017903;28;20096;-45
2022/02/23 03:16:50;;;;;;;12.43;4.05;;;;;;;6.49;86.93;102297.22;5015430;28;20034;-49
2022/02/23 03:19:18;;;;;;;16.55;4.57;;;;;;;6.47;86.95;102291.16;5014552;28;20081;-45
2022/02/23 03:21:46;;;;;;;11.88;3.83;;;;;;;6.46;86.64;102300.34;5015785;28;20121;-41
2022/02/23 03:24:13;;;;;;;13.95;4.05;;;;;;;6.43;86.72;102296.16;5028546;28;20132;-42
2022/02/23 03:26:41;;;;;;;14.50;4.50;;;;;;;6.43;86.86;102300.75;5033967;28;20045;-41
2022/02/23 03:29:09;;;;;;;15.88;4.38;;;;;;;6.40;87.04;102302.00;5033076;28;20107;-41
2022/02/23 03:31:36;;;;;;;17.65;4.10;;;;;;;6.38;87.19;102301.34;5022323;28;20532;-42
2022/02/23 03:34:04;;;;;;;17.58;5.15;;;;;;;6.37;86.71;102299.66;5015404;28;20125;-42
2022/02/23 03:36:34;;;;;;;12.55;3.72;;;;;;;6.35;87.27;102302.59;5014773;28;20416;-44
2022/02/23 03:39:03;;;;;;;14.27;4.10;;;;;;;6.34;87.18;102302.78;5014032;28;20386;-45
2022/02/23 03:41:31;;;;;;;18.88;4.65;;;;;;;6.33;87.28;102304.66;5002038;28;20121;-47
2022/02/23 03:44:03;;;;;;;15.23;4.22;;;;;;;6.32;87.31;102299.44;5013332;28;20054;-44
2022/02/23 03:46:31;;;;;;;14.10;4.03;;;;;;;6.30;86.88;102306.94;5013189;28;20070;-44
2022/02/23 03:48:59;;;;;;;13.75;4.40;;;;;;;6.26;87.41;102306.53;5013866;28;20142;-45
2022/02/23 03:51:26;;;;;;;21.33;5.00;;;;;;;6.26;87.21;102317.34;5026586;28;20045;-44
2022/02/23 03:53:54;;;;;;;15.82;4.20;;;;;;;6.24;87.67;102310.47;5031972;28;20474;-44
2022/02/23 03:56:42;;;;;;;20.17;4.63;;;;;;;6.25;87.49;102307.53;5033423;28;20506;-47
2022/02/23 03:59:11;;;;;;;13.70;3.80;;;;;;;6.25;87.14;102315.66;5034587;28;20069;-44
2022/02/23 04:01:45;;;;;;;14.27;4.30;;;;;;;6.26;87.50;102328.19;5033274;28;20045;-45
2022/02/23 04:04:14;;;;;;;14.13;4.00;;;;;;;6.26;86.67;102328.19;5015510;28;20402;-44
2022/02/23 04:06:43;;;;;;;17.80;4.40;;;;;;;6.26;86.87;102332.75;5012886;28;20050;-44
2022/02/23 04:09:11;;;;;;;13.52;4.25;;;;;;;6.25;87.29;102340.03;5012619;28;20033;-45
2022/02/23 04:11:39;;;;;;;16.40;4.80;;;;;;;6.23;87.11;102347.53;5029781;28;20129;-45
2022/02/23 04:14:07;;;;;;;13.65;4.18;;;;;;;6.22;87.30;102351.25;5018288;28;20496;-45
2022/02/23 04:16:35;;;;;;;15.00;4.72;;;;;;;6.22;87.39;102353.97;4996603;28;20064;-47
2022/02/23 04:19:05;;;;;;;15.50;3.83;;;;;;;6.22;87.04;102350.44;5013178;28;20042;-47
2022/02/23 04:21:34;;;;;;;16.67;4.20;;;;;;;6.20;87.15;102353.31;5014656;28;20081;-45
2022/02/23 04:24:01;;;;;;;18.27;4.70;;;;;;;6.19;87.57;102357.09;5031751;28;20419;-46
2022/02/23 04:26:29;;;;;;;14.63;4.13;;;;;;;6.19;87.11;102352.50;5033408;28;20448;-45
2022/02/23 04:28:57;;;;;;;16.20;4.43;;;;;;;6.17;86.92;102359.97;5033326;28;20077;-45
2022/02/23 04:31:25;;;;;;;12.30;4.10;;;;;;;6.17;87.21;102359.16;5027922;28;20076;-47
2022/02/23 04:33:53;;;;;;;17.65;4.30;;;;;;;6.17;87.31;102364.56;5007655;28;20496;-46
2022/02/23 04:36:21;;;;;;;13.95;3.80;;;;;;;6.16;86.93;102366.44;5013552;28;20046;-49
2022/02/23 04:38:51;;;;;;;18.17;4.63;;;;;;;6.14;87.54;102363.09;5012103;28;20054;-46
2022/02/23 04:41:19;;;;;;;17.23;4.40;;;;;;;6.12;87.19;102365.16;5014317;28;20038;-46
2022/02/23 04:43:47;;;;;;;15.57;4.15;;;;;;;6.11;87.39;102368.06;5031353;28;20078;-46
2022/02/23 04:46:15;;;;;;;15.45;4.55;;;;;;;6.12;87.28;102369.75;5033343;28;20041;-46
2022/02/23 04:48:44;;;;;;;15.57;4.07;;;;;;;6.09;87.30;102368.28;5031866;28;20045;-42
2022/02/23 04:51:12;;;;;;;15.95;4.32;;;;;;;6.09;87.10;102378.28;5031184;28;20049;-46
2022/02/23 04:53:40;;;;;;;14.45;4.80;;;;;;;6.10;87.50;102377.22;5026730;28;20141;-45
2022/02/23 04:56:08;;;;;;;14.82;4.00;;;;;;;6.09;87.38;102380.97;5012193;28;20057;-45
2022/02/23 04:58:36;;;;;;;15.88;4.18;;;;;;;6.08;87.32;102379.28;5011995;28;20040;-48
2022/02/23 05:01:04;;;;;;;15.05;4.53;;;;;;;6.07;87.07;102388.44;5012215;28;20042;-47
2022/02/23 05:03:33;;;;;;;18.55;4.15;;;;;;;6.04;87.04;102386.13;5010320;28;20042;-43
2022/02/23 05:06:00;;;;;;;16.05;5.03;;;;;;;6.02;87.34;102386.34;5013113;28;20042;-45
2022/02/23 05:08:28;;;;;;;13.40;4.20;;;;;;;6.02;87.47;102390.94;5013374;28;20053;-45
2022/02/23 05:10:57;;;;;;;19.83;4.53;;;;;;;6.01;87.36;102391.94;5020324;28;20044;-49
2022/02/23 05:13:25;;;;;;;13.98;4.22;;;;;;;6.01;87.81;102394.66;5031577;28;20092;-47
2022/02/23 05:15:56;;;;;;;12.85;3.97;;;;;;;6.00;87.84;102387.56;5052076;28;20042;-47
2022/02/23 05:18:28;;;;;;;14.52;4.50;;;;;;;6.01;87.90;102394.66;5036797;28;20057;-45
2022/02/23 05:20:57;;;;;;;16.75;4.72;;;;;;;5.99;87.76;102400.28;5031051;28;20042;-45
2022/02/23 05:23:26;;;;;;;15.20;4.03;;;;;;;5.98;87.50;102402.13;5012059;28;20042;-44
2022/02/23 05:25:56;;;;;;;16.52;4.63;;;;;;;5.98;87.95;102394.00;5029770;28;20084;-47
2022/02/23 05:28:25;;;;;;;20.73;4.47;;;;;;;5.97;87.72;102405.88;5035594;28;20095;-47
2022/02/23 05:30:52;;;;;;;15.80;4.55;;;;;;;5.96;88.18;102409.63;5035588;28;20123;-45
2022/02/23 05:33:20;;;;;;;14.35;4.82;;;;;;;5.96;88.22;102412.34;5036272;28;20057;-45
2022/02/23 05:35:48;;;;;;;14.15;4.20;;;;;;;5.96;88.23;102401.50;5035986;28;20071;-44
2022/02/23 05:38:15;;;;;;;16.40;4.43;;;;;;;5.97;88.08;102402.34;5034324;28;20063;-44
2022/02/23 05:40:43;;;;;;;14.90;4.45;;;;;;;5.96;88.04;102398.81;5035006;28;20051;-47
2022/02/23 05:43:11;;;;;;;16.77;5.03;;;;;;;5.97;88.15;102407.75;5036069;28;20103;-47
2022/02/23 05:45:38;;;;;;;14.73;4.53;;;;;;;5.95;88.15;102402.53;5036016;28;20076;-48
2022/02/23 05:48:06;;;;;;;14.05;4.30;;;;;;;5.93;88.32;102412.69;5036351;28;20092;-44
2022/02/23 05:50:34;;;;;;;14.05;4.05;;;;;;;5.93;88.34;102412.69;5034121;28;20120;-45
2022/02/23 05:53:01;;;;;;;18.50;5.10;;;;;;;5.92;88.27;102413.72;5016767;28;20132;-43
2022/02/23 05:55:29;;;;;;;13.73;4.80;;;;;;;5.91;88.18;102422.84;5036072;28;20124;-47
2022/02/23 05:57:57;;;;;;;16.60;4.70;;;;;;;5.90;88.58;102418.50;5034873;28;20235;-45
2022/02/23 06:00:24;;;;;;;15.30;4.72;;;;;;;5.90;88.11;102423.91;5036055;28;20045;-45
2022/02/23 06:02:52;;;;;;;16.25;4.63;;;;;;;5.90;88.14;102425.78;5031991;28;20465;-47
2022/02/23 06:05:19;;;;;;;17.23;4.68;;;;;;;5.88;88.06;102428.66;5035926;28;20073;-47
2022/02/23 06:07:47;;;;;;;17.20;4.38;;;;;;;5.85;87.83;102433.66;5035796;28;20140;-47
2022/02/23 06:10:16;;;;;;;15.55;4.72;;;;;;;5.84;87.93;102429.25;5025732;28;20099;-46
2022/02/23 06:12:43;;;;;;;16.85;4.45;;;;;;;5.85;88.12;102433.66;5022964;28;20492;-43
2022/02/23 06:15:11;;;;;;;17.42;4.28;;;;;;;5.86;88.06;102427.19;5033669;28;20037;-45
2022/02/23 06:17:39;;;;;;;13.57;4.10;;;;;;;5.86;88.15;102430.72;5035891;28;20045;-45
2022/02/23 06:20:07;;;;;;;15.43;4.28;;;;;;;5.86;87.77;102432.59;5036295;28;20120;-46
2022/02/23 06:22:35;;;;;;;15.38;4.30;;;;;;;5.84;87.86;102432.78;5035817;28;20049;-44
2022/02/23 06:25:03;;;;;;;11.75;4.03;;;;;;;5.83;87.83;102439.25;5037589;28;20138;-43
2022/02/23 06:27:31;;;;;;;19.02;4.75;;;;;;;5.84;88.14;102438.19;5029886;28;20116;-43
2022/02/23 06:29:58;;;;;;;16.98;4.63;;;;;;;5.84;88.33;102430.09;5023613;28;20139;-43
2022/02/23 06:32:26;;;;;;;10.90;4.45;;;;;;;5.85;88.20;102433.66;4333842;28;10000736;-45
2022/02/23 06:34:54;;;;;;;13.07;4.50;;;;;;;5.82;87.67;102434.88;5012099;28;20042;-46
2022/02/23 06:37:23;;;;;;;15.00;4.22;;;;;;;5.78;87.68;102433.59;5011933;28;20066;-48
2022/02/23 06:39:51;;;;;;;12.63;4.20;;;;;;;5.77;87.95;102442.72;5014139;28;20038;-46
2022/02/23 06:42:20;;;;;;;14.98;4.50;;;;;;;5.75;87.88;102439.41;5012176;28;20150;-45
2022/02/23 06:44:48;;;;;;;14.10;4.43;;;;;;;5.73;88.19;102444.16;5011892;28;20038;-45
2022/02/23 06:47:16;;;;;;;12.30;4.30;;;;;;;5.74;88.17;102437.72;5017246;28;20132;-46
2022/02/23 06:49:43;;;;;;;11.88;4.00;;;;;;;5.74;88.17;102443.13;5031287;28;20566;-44
2022/02/23 06:52:12;;;;;;;16.33;4.20;;;;;;;5.74;87.76;102437.72;5028567;28;20063;-41
2022/02/23 06:54:40;;;;;;;11.38;4.10;;;;;;;5.73;88.04;102436.88;5030476;28;20132;-42
2022/02/23 06:57:09;;;;;;;14.38;4.57;;;;;;;5.73;87.77;102441.47;5032151;28;20500;-42
2022/02/23 06:59:40;;;;;;;13.90;4.25;;;;;;;5.72;88.24;102446.03;5030386;28;20033;-41
2022/02/23 07:02:09;;;;;;;16.60;4.22;;;;;;;5.71;87.86;102452.47;5019712;28;20474;-41
2022/02/23 07:04:37;;;;;;;14.50;4.20;;;;;;;5.70;88.07;102452.66;5016247;28;20045;-43
2022/02/23 07:07:05;;;;;;;13.98;4.63;;;;;;;5.73;88.12;102452.28;5043200;28;20129;-50
2022/02/23 07:09:33;;;;;;;13.93;4.40;;;;;;;5.72;88.11;102454.16;5012664;28;20090;-47
2022/02/23 07:12:04;;;;;;;14.57;4.60;;;;;;;5.72;88.11;102456.00;5011233;28;20053;-47
2022/02/23 07:14:33;;;;;;;13.15;4.57;;;;;;;5.72;88.02;102461.41;5010084;28;20081;-48
2022/02/23 07:17:01;;;;;;;15.18;4.88;;;;;;;5.67;88.25;102458.44;5011073;28;20054;-46
2022/02/23 07:19:35;;;;;;;19.65;5.60;;;;;;;5.64;88.32;102464.25;5012349;28;20049;-47
2022/02/23 07:22:04;;;;;;;18.27;4.78;;;;;;;5.60;88.54;102462.97;5010335;28;20049;-41
2022/02/23 07:24:35;;;;;;;14.77;4.40;;;;;;;5.60;88.72;102466.50;5010961;28;20565;-41
2022/02/23 07:27:08;;;;;;;13.45;4.43;;;;;;;5.59;88.69;102474.81;5024696;28;20038;-41
2022/02/23 07:29:37;;;;;;;11.73;4.32;;;;;;;5.62;88.97;102475.25;5011404;28;20483;-45
2022/02/23 07:32:05;;;;;;;14.77;4.00;;;;;;;5.63;89.01;102467.97;5011135;28;20084;-45
2022/02/23 07:34:37;;;;;;;12.77;4.65;;;;;;;5.64;89.51;102462.38;5011491;28;20050;-43
2022/02/23 07:37:04;;;;;;;14.40;4.43;;;;;;;5.65;89.67;102471.31;5012804;28;20038;-45
2022/02/23 07:39:33;;;;;;;13.85;4.20;;;;;;;5.65;89.46;102479.44;5027729;28;20460;-44
2022/02/23 07:42:01;;;;;;;15.90;5.43;;;;;;;5.64;89.88;102480.47;5028849;28;20056;-43
2022/02/23 07:44:49;;;;;;;15.68;4.80;;;;;;;5.63;90.33;102473.38;5019862;28;20049;-45
2022/02/23 07:47:16;;;;;;;11.70;3.97;;;;;;;5.66;90.70;102483.84;5033858;28;20069;-46
2022/02/23 07:49:49;;;;;;;16.27;5.05;;;;;;;5.70;91.12;102485.09;5032094;28;20065;-44
2022/02/23 07:52:17;;;;;;;15.82;4.85;;;;;;;5.71;91.71;102487.63;5033455;28;20056;-45
2022/02/23 07:54:45;;;;;;;14.85;5.10;;;;;;;5.72;91.32;102485.75;5033656;28;20056;-47
2022/02/23 07:57:13;;;;;;;13.50;4.85;;;;;;;5.74;91.72;102491.81;5033443;28;20137;-43
2022/02/23 07:59:41;;;;;;;13.88;4.82;;;;;;;5.75;91.58;102488.09;5033619;28;20042;-44
2022/02/23 08:02:09;;;;;;;17.08;5.55;;;;;;;5.76;90.96;102495.97;5028453;28;20045;-44
2022/02/23 08:04:37;;;;;;;11.05;4.25;;;;;;;5.76;91.46;102489.75;5013929;28;20033;-43
2022/02/23 08:07:04;;;;;;;18.92;5.10;;;;;;;5.79;92.65;102494.75;5013572;28;20121;-44
2022/02/23 08:09:32;;;;;;;23.27;6.55;;;;;;;5.84;92.28;102494.16;5013577;28;20052;-46
2022/02/23 08:12:01;;;;;;;15.27;5.32;;;;;;;5.85;92.18;102503.97;5014626;28;20042;-43
2022/02/23 08:14:29;;;;;;;21.25;6.00;;;;;;;5.86;92.73;102503.75;5013455;28;20045;-45
2022/02/23 08:19:42;;;;;;;19.02;6.55;;;;;;;6.12;97.86;102505.88;5014761;28;20468;-46
2022/02/23 08:22:14;;;;;;;21.67;6.75;;;;;;;6.12;95.30;102505.88;5031833;28;20064;-46
2022/02/23 08:24:45;;;;;;;19.25;7.00;;;;;;;6.06;93.70;102505.81;5048516;28;20393;-43
2022/02/23 08:27:16;;;;;;;19.15;6.00;;;;;;;5.94;92.89;102503.69;5034756;28;20057;-43
2022/02/23 08:29:45;;;;;;;20.00;6.70;;;;;;;5.86;93.49;102500.22;5034139;28;20381;-43
2022/02/23 08:32:14;;;;;;;19.40;7.03;;;;;;;5.84;93.76;102497.72;5013530;28;20041;-44
2022/02/23 08:34:44;;;;;;;18.75;6.78;;;;;;;5.85;93.80;102495.88;5013339;28;20453;-45
2022/02/23 08:37:13;;;;;;;20.02;6.60;;;;;;;5.93;94.07;102498.41;5012096;28;20042;-44
2022/02/23 08:39:42;;;;;;;20.70;7.43;;;;;;;6.06;95.54;102489.59;5016736;28;20053;-45
2022/02/23 08:42:12;;;;;;;25.77;8.07;;;;;;;6.16;97.00;102495.50;5031601;28;20107;-46
2022/02/23 08:44:41;;;;;;;17.70;7.05;;;;;;;6.31;100.00;102493.53;5033136;28;20038;-44
2022/02/23 08:47:09;;;;;;;23.02;8.35;;;;;;;6.33;100.00;102491.47;5033059;28;20115;-46
2022/02/23 08:49:37;;;;;;;19.00;7.50;;;;;;;6.30;98.03;102496.41;5030243;28;20042;-45
2022/02/23 08:52:07;;;;;;;20.02;6.82;;;;;;;6.33;98.82;102505.00;5032605;28;20046;-46
2022/02/23 08:54:35;;;;;;;19.63;6.93;;;;;;;6.31;98.47;102498.09;5032901;28;20480;-45
2022/02/23 08:57:03;;;;;;;24.73;7.53;;;;;;;6.42;99.06;102499.41;5032743;28;20128;-47
2022/02/23 08:59:31;;;;;;;21.30;7.50;;;;;;;6.43;99.81;102506.50;5027766;28;20473;-46
2022/02/23 09:01:59;;;;;;;18.05;7.22;;;;;;;6.39;98.59;102504.19;5016182;28;20042;-45
2022/02/23 09:04:28;;;;;;;21.80;7.30;;;;;;;6.40;97.78;102502.34;5032005;28;20052;-47
2022/02/23 09:06:56;;;;;;;18.00;6.90;;;;;;;6.44;98.87;102503.59;5031585;28;20049;-45
2022/02/23 09:09:23;;;;;;;19.48;7.40;;;;;;;6.48;98.57;102506.75;5030490;28;20080;-47
2022/02/23 09:11:53;;;;;;;20.17;6.82;;;;;;;6.50;99.33;102507.41;5030870;28;20460;-48
2022/02/23 09:14:21;;;;;;;30.92;12.98;;;;;;;6.65;100.00;102504.56;5032560;28;20041;-45
2022/02/23 09:16:49;;;;;;;19.00;7.25;;;;;;;6.68;99.81;102504.16;5020676;28;20046;-45
2022/02/23 09:19:17;;;;;;;19.35;6.90;;;;;;;6.56;96.48;102502.00;5012466;28;20441;-46
2022/02/23 09:21:45;;;;;;;23.83;7.45;;;;;;;6.50;95.89;102507.41;5013125;28;20120;-46
2022/02/23 09:24:12;;;;;;;19.80;7.65;;;;;;;6.46;95.77;102497.97;5012812;28;20130;-46
2022/02/23 09:26:40;;;;;;;23.90;7.47;;;;;;;6.47;95.73;102507.78;5011829;28;20053;-46
2022/02/23 09:29:08;;;;;;;27.42;7.22;;;;;;;6.62;97.96;102505.78;5014788;28;20037;-46
2022/02/23 09:31:38;;;;;;;23.00;7.40;;;;;;;6.93;100.00;102504.50;5022315;28;20044;-45
2022/02/23 09:34:07;;;;;;;19.98;7.47;;;;;;;7.15;100.00;102506.03;5013191;28;20042;-45
2022/02/23 09:36:38;;;;;;;20.17;7.10;;;;;;;7.03;100.00;102505.75;5012565;28;20074;-46
2022/02/23 09:39:09;;;;;;;21.90;6.70;;;;;;;7.00;100.00;102503.47;5022253;28;20500;-46
2022/02/23 09:41:39;;;;;;;24.05;6.70;;;;;;;7.18;100.00;102508.31;5031143;28;20049;-46
2022/02/23 09:44:14;;;;;;;22.67;6.90;;;;;;;7.08;100.00;102505.16;5032727;28;20041;-47
2022/02/23 09:46:43;;;;;;;19.42;6.28;;;;;;;7.17;100.00;102498.53;5032337;28;20095;-43
2022/02/23 09:49:12;;;;;;;19.88;6.28;;;;;;;7.04;97.92;102499.28;5030500;28;20124;-46
2022/02/23 09:51:48;;;;;;;17.67;6.38;;;;;;;6.98;97.35;102499.28;5031251;28;20388;-47
2022/02/23 09:54:17;;;;;;;17.33;6.95;;;;;;;7.15;97.30;102494.34;5030972;28;20041;-47
2022/02/23 09:56:46;;;;;;;20.80;6.50;;;;;;;7.53;100.00;102502.78;5032992;28;20076;-46
2022/02/23 09:59:14;;;;;;;26.17;6.93;;;;;;;7.39;95.38;102492.94;5019077;28;20052;-45
2022/02/23 10:01:42;;;;;;;17.85;5.68;;;;;;;7.21;94.51;102488.91;5014927;28;20045;-45
2022/02/23 10:04:13;;;;;;;17.60;6.25;;;;;;;7.32;97.67;102486.69;5014845;28;20489;-44
2022/02/23 10:06:42;;;;;;;17.27;5.95;;;;;;;7.38;98.57;102480.41;4999022;28;20046;-46
2022/02/23 10:09:16;;;;;;;20.25;6.25;;;;;;;7.38;97.86;102478.53;5017128;28;20132;-45
2022/02/23 10:11:47;;;;;;;20.92;6.60;;;;;;;7.48;96.79;102486.28;5014955;28;20038;-43
2022/02/23 10:14:17;;;;;;;20.23;5.88;;;;;;;7.57;99.30;102482.31;5014731;28;20049;-47
2022/02/23 10:16:47;;;;;;;21.35;6.60;;;;;;;7.57;97.38;102486.91;5015684;28;20408;-46
2022/02/23 10:19:18;;;;;;;16.27;5.50;;;;;;;7.52;96.19;102487.53;5030579;28;20046;-45
2022/02/23 10:21:50;;;;;;;17.33;5.70;;;;;;;7.75;97.38;102480.88;5035572;28;20038;-46
2022/02/23 10:24:27;;;;;;;18.42;5.88;;;;;;;7.75;100.00;102479.00;5035518;28;20073;-46
2022/02/23 10:27:00;;;;;;;23.42;6.05;;;;;;;7.71;96.93;102485.06;5035449;28;20411;-43
2022/02/23 10:29:29;;;;;;;22.67;6.00;;;;;;;8.01;100.00;102494.47;5033602;28;20439;-47
2022/02/23 10:31:58;;;;;;;17.63;5.72;;;;;;;8.04;98.94;102483.16;5033980;28;20037;-46
2022/02/23 10:34:28;;;;;;;16.95;5.97;;;;;;;8.11;100.00;102478.56;5035213;28;20060;-46
2022/02/23 10:37:07;;;;;;;16.92;6.13;;;;;;;7.97;97.94;102476.09;5034935;28;20488;-47
2022/02/23 10:40:00;;;;;;;19.80;5.80;;;;;;;8.09;96.67;102480.66;5014841;28;20058;-43
2022/02/23 10:42:34;;;;;;;18.58;5.28;;;;;;;8.28;96.73;102478.97;4998036;28;20050;-44
2022/02/23 10:45:06;;;;;;;17.38;5.28;;;;;;;8.03;89.79;102481.50;5015297;28;20038;-45
2022/02/23 10:47:42;;;;;;;20.75;6.55;;;;;;;7.91;89.82;102485.88;5015247;28;20042;-45
2022/02/23 10:50:25;;;;;;;15.90;5.10;;;;;;;7.98;91.81;102483.16;5034706;28;20049;-47
2022/02/23 10:52:57;;;;;;;18.42;4.43;;;;;;;7.99;90.41;102480.25;5034995;28;20072;-47
2022/02/23 10:55:30;;;;;;;17.13;4.85;;;;;;;8.00;85.57;102487.34;5034717;28;20034;-43
2022/02/23 10:58:06;;;;;;;15.75;4.45;;;;;;;8.06;87.81;102470.22;5026974;28;20049;-48
2022/02/23 11:00:35;;;;;;;19.30;4.60;;;;;;;8.01;82.26;102478.16;5033710;28;20423;-43
2022/02/23 11:03:06;;;;;;;17.45;5.07;;;;;;;7.94;81.64;102473.75;5034597;28;20052;-46
2022/02/23 11:05:34;;;;;;;20.48;5.07;;;;;;;7.87;81.65;102469.19;5034691;28;20144;-47
2022/02/23 11:08:11;;;;;;;16.73;5.00;;;;;;;7.85;81.40;102470.44;5034569;28;20116;-47
2022/02/23 11:10:41;;;;;;;20.17;5.07;;;;;;;7.86;80.37;102469.38;5014398;28;20061;-46
2022/02/23 11:13:17;;;;;;;16.63;5.32;;;;;;;8.07;85.03;102466.47;5026816;28;20085;-45
2022/02/23 11:15:51;;;;;;;17.30;5.03;;;;;;;8.03;80.17;102458.94;5034127;28;20416;-42
2022/02/23 11:18:21;;;;;;;16.95;5.15;;;;;;;8.24;85.17;102449.72;5026281;28;20042;-44
2022/02/23 11:20:49;;;;;;;21.52;4.72;;;;;;;8.10;79.55;102446.19;4997008;28;20042;-45
2022/02/23 11:23:24;;;;;;;16.33;4.95;;;;;;;8.08;79.09;102453.72;4997333;28;20100;-45
2022/02/23 11:25:54;;;;;;;19.40;4.45;;;;;;;8.06;78.62;102453.94;5014005;28;20041;-45
2022/02/23 11:28:32;;;;;;;15.98;4.88;;;;;;;8.14;82.99;102443.91;5019216;28;20125;-47
2022/02/23 11:31:05;;;;;;;15.15;4.93;;;;;;;9.01;97.36;102445.28;5025865;28;20136;-46
2022/02/23 11:33:58;;;;;;;18.10;4.82;;;;;;;9.16;95.63;102445.84;5033049;28;20128;-46
2022/02/23 11:36:42;;;;;;;16.40;4.68;;;;;;;8.79;83.39;102449.38;5033227;28;20045;-45